createdAt,value
2023-03-10T00:00:38.422Z,8.70
2023-03-10T00:03:05.078Z,8.70
2023-03-10T00:05:31.971Z,8.80
2023-03-10T00:07:58.641Z,8.70
2023-03-10T00:10:25.392Z,8.70
2023-03-10T00:12:52.010Z,8.70
2023-03-10T00:15:18.894Z,8.70
2023-03-10T00:17:45.613Z,8.70
2023-03-10T00:20:12.959Z,8.70
2023-03-10T00:22:41.720Z,8.70
2023-03-10T00:25:09.770Z,8.80
2023-03-10T00:27:36.781Z,8.70
2023-03-10T00:30:03.793Z,8.70
2023-03-10T00:32:30.811Z,8.70
2023-03-10T00:34:57.545Z,8.80
2023-03-10T00:37:24.195Z,8.70
2023-03-10T00:39:52.445Z,8.80
2023-03-10T00:42:19.536Z,8.70
2023-03-10T00:44:46.389Z,8.70
2023-03-10T00:47:12.997Z,8.70
2023-03-10T00:49:39.634Z,8.80
2023-03-10T00:52:06.449Z,8.70
2023-03-10T00:54:33.064Z,8.70
2023-03-10T00:56:59.628Z,8.70
2023-03-10T00:59:26.239Z,8.70
2023-03-10T01:01:53.018Z,8.70
2023-03-10T01:04:20.059Z,8.80
2023-03-10T01:06:47.766Z,8.80
2023-03-10T01:09:14.901Z,8.70
2023-03-10T01:11:41.554Z,8.70
2023-03-10T01:14:09.450Z,8.80
2023-03-10T01:16:36.138Z,8.80
2023-03-10T01:19:02.755Z,8.70
2023-03-10T01:21:32.350Z,8.70
2023-03-10T01:24:00.354Z,8.70
2023-03-10T01:26:27.430Z,8.80
2023-03-10T01:28:53.977Z,8.80
2023-03-10T01:31:20.749Z,8.80
2023-03-10T01:33:48.041Z,8.80
2023-03-10T01:36:18.662Z,8.80
2023-03-10T01:38:46.323Z,8.80
2023-03-10T01:41:13.084Z,8.80
2023-03-10T01:43:44.466Z,8.80
2023-03-10T01:46:35.829Z,8.80
2023-03-10T01:49:16.517Z,8.80
2023-03-10T01:51:46.082Z,8.80
2023-03-10T01:54:18.529Z,8.80
2023-03-10T01:56:46.825Z,8.70
2023-03-10T01:59:14.538Z,8.70
2023-03-10T02:01:41.379Z,8.70
2023-03-10T02:04:29.504Z,8.70
2023-03-10T02:06:57.346Z,8.80
2023-03-10T02:09:25.190Z,8.80
2023-03-10T02:11:52.046Z,8.80
2023-03-10T02:14:19.093Z,8.70
2023-03-10T02:16:46.128Z,8.80
2023-03-10T02:19:29.611Z,8.80
2023-03-10T02:22:10.390Z,8.70
2023-03-10T02:24:55.726Z,8.80
2023-03-10T02:27:29.807Z,8.80
2023-03-10T02:30:03.227Z,8.80
2023-03-10T02:32:33.808Z,8.80
2023-03-10T02:35:00.967Z,8.80
2023-03-10T02:37:30.628Z,8.80
2023-03-10T02:39:57.624Z,8.80
2023-03-10T02:42:29.473Z,8.80
2023-03-10T02:44:56.800Z,8.80
2023-03-10T02:47:23.576Z,8.80
2023-03-10T02:49:50.215Z,8.80
2023-03-10T02:52:29.679Z,8.80
2023-03-10T02:54:56.341Z,8.80
2023-03-10T02:57:22.943Z,8.80
2023-03-10T02:59:49.623Z,8.80
2023-03-10T03:02:16.281Z,8.80
2023-03-10T03:04:43.206Z,8.80
2023-03-10T03:07:09.874Z,8.80
2023-03-10T03:09:36.517Z,8.80
2023-03-10T03:12:03.297Z,8.80
2023-03-10T03:14:29.894Z,8.80
2023-03-10T03:16:56.597Z,8.80
2023-03-10T03:19:23.207Z,8.80
2023-03-10T03:21:50.224Z,8.80
2023-03-10T03:24:18.065Z,8.80
2023-03-10T03:26:44.826Z,8.70
2023-03-10T03:29:12.099Z,8.70
2023-03-10T03:31:38.970Z,8.80
2023-03-10T03:34:06.018Z,8.80
2023-03-10T03:36:32.780Z,8.70
2023-03-10T03:38:59.477Z,8.70
2023-03-10T03:41:26.111Z,8.70
2023-03-10T03:43:52.741Z,8.70
2023-03-10T03:46:19.347Z,8.70
2023-03-10T03:48:45.954Z,8.70
2023-03-10T03:51:12.619Z,8.70
2023-03-10T03:53:39.220Z,8.70
2023-03-10T03:56:06.107Z,8.70
2023-03-10T03:58:32.767Z,8.70
2023-03-10T04:00:59.447Z,8.70
2023-03-10T04:03:26.082Z,8.70
2023-03-10T04:05:52.766Z,8.70
2023-03-10T04:08:19.432Z,8.70
2023-03-10T04:10:55.801Z,8.70
2023-03-10T04:13:22.444Z,8.70
2023-03-10T04:15:49.081Z,8.70
2023-03-10T04:18:15.721Z,8.70
2023-03-10T04:20:42.347Z,8.70
2023-03-10T04:23:09.000Z,8.70
2023-03-10T04:25:36.388Z,8.70
2023-03-10T04:28:03.162Z,8.70
2023-03-10T04:30:29.968Z,8.70
2023-03-10T04:32:59.353Z,8.70
2023-03-10T04:35:26.204Z,8.70
2023-03-10T04:37:53.285Z,8.70
2023-03-10T04:40:20.175Z,8.70
2023-03-10T04:42:47.360Z,8.70
2023-03-10T04:45:14.378Z,8.70
2023-03-10T04:47:41.157Z,8.70
2023-03-10T04:50:10.178Z,8.70
2023-03-10T04:52:36.780Z,8.70
2023-03-10T04:55:03.723Z,8.70
2023-03-10T04:57:30.336Z,8.70
2023-03-10T04:59:56.944Z,8.70
2023-03-10T05:02:23.607Z,8.70
2023-03-10T05:04:50.444Z,8.70
2023-03-10T05:07:17.130Z,8.70
2023-03-10T05:09:43.822Z,8.70
2023-03-10T05:12:10.590Z,8.70
2023-03-10T05:14:37.929Z,8.70
2023-03-10T05:17:04.897Z,8.70
2023-03-10T05:19:33.987Z,8.70
2023-03-10T05:22:01.072Z,8.70
2023-03-10T05:24:27.646Z,8.70
2023-03-10T05:26:54.227Z,8.70
2023-03-10T05:29:20.975Z,8.70
2023-03-10T05:31:48.082Z,8.70
2023-03-10T05:34:15.134Z,8.70
2023-03-10T05:36:43.137Z,8.70
2023-03-10T05:39:11.021Z,8.70
2023-03-10T05:41:38.631Z,8.70
2023-03-10T05:44:05.468Z,8.70
2023-03-10T05:46:32.140Z,8.70
2023-03-10T05:48:58.735Z,8.70
2023-03-10T05:51:25.476Z,8.70
2023-03-10T05:53:52.126Z,8.70
2023-03-10T05:56:19.612Z,8.70
2023-03-10T05:58:47.209Z,8.70
2023-03-10T06:01:14.604Z,8.70
2023-03-10T06:03:41.495Z,8.70
2023-03-10T06:06:08.418Z,8.70
2023-03-10T06:08:35.513Z,8.70
2023-03-10T06:11:02.860Z,8.70
2023-03-10T06:13:29.670Z,8.70
2023-03-10T06:16:01.594Z,8.70
2023-03-10T06:18:29.226Z,8.70
2023-03-10T06:20:56.056Z,8.70
2023-03-10T06:23:23.883Z,8.70
2023-03-10T06:26:02.202Z,8.70
2023-03-10T06:28:33.372Z,8.70
2023-03-10T06:31:01.434Z,8.70
2023-03-10T06:33:29.348Z,8.70
2023-03-10T06:35:56.154Z,8.70
2023-03-10T06:38:23.582Z,8.70
2023-03-10T06:40:50.722Z,8.60
2023-03-10T06:43:17.524Z,8.70
2023-03-10T06:45:45.824Z,8.70
2023-03-10T06:48:13.162Z,8.70
2023-03-10T06:50:50.443Z,8.70
2023-03-10T06:53:20.345Z,8.70
2023-03-10T06:56:01.489Z,8.70
2023-03-10T06:58:29.468Z,8.70
2023-03-10T07:00:56.587Z,8.70
2023-03-10T07:03:26.067Z,8.70
2023-03-10T07:05:53.134Z,8.70
2023-03-10T07:08:20.139Z,8.70
2023-03-10T07:10:46.798Z,8.60
2023-03-10T07:13:17.346Z,8.70
2023-03-10T07:15:45.345Z,8.70
2023-03-10T07:18:12.834Z,8.70
2023-03-10T07:20:41.041Z,8.70
2023-03-10T07:23:07.966Z,8.70
2023-03-10T07:25:36.281Z,8.70
2023-03-10T07:28:04.695Z,8.80
2023-03-10T07:30:32.185Z,8.70
2023-03-10T07:32:58.924Z,8.80
2023-03-10T07:35:25.902Z,8.80
2023-03-10T07:37:52.583Z,8.80
2023-03-10T07:40:22.788Z,8.80
2023-03-10T07:42:49.442Z,8.80
2023-03-10T07:45:16.160Z,8.80
2023-03-10T07:47:42.775Z,8.80
2023-03-10T07:50:10.289Z,8.90
2023-03-10T07:52:37.144Z,8.90
2023-03-10T07:55:04.373Z,8.90
2023-03-10T07:57:31.022Z,8.90
2023-03-10T07:59:57.727Z,8.90
2023-03-10T08:02:24.297Z,8.90
2023-03-10T08:04:52.117Z,8.90
2023-03-10T08:07:19.049Z,9.00
2023-03-10T08:09:52.720Z,9.00
2023-03-10T08:12:20.906Z,9.00
2023-03-10T08:14:48.584Z,9.00
2023-03-10T08:17:15.444Z,9.00
2023-03-10T08:19:42.419Z,9.00
2023-03-10T08:22:10.257Z,9.00
2023-03-10T08:24:38.003Z,9.00
2023-03-10T08:27:05.512Z,9.00
2023-03-10T08:29:32.358Z,9.00
2023-03-10T08:31:58.991Z,9.00
2023-03-10T08:34:25.671Z,9.00
2023-03-10T08:36:52.487Z,9.00
2023-03-10T08:39:19.117Z,9.00
2023-03-10T08:41:49.255Z,9.00
2023-03-10T08:44:18.040Z,9.10
2023-03-10T08:46:47.183Z,9.00
2023-03-10T08:49:15.580Z,9.10
2023-03-10T08:51:42.690Z,9.10
2023-03-10T08:54:11.817Z,9.10
2023-03-10T08:56:38.518Z,9.10
2023-03-10T08:59:05.251Z,9.20
2023-03-10T09:01:34.321Z,9.20
2023-03-10T09:04:02.434Z,9.10
2023-03-10T09:06:30.085Z,9.10
2023-03-10T09:08:57.110Z,9.10
2023-03-10T09:11:27.010Z,9.10
2023-03-10T09:13:54.175Z,9.20
2023-03-10T09:16:21.165Z,9.20
2023-03-10T09:18:48.859Z,9.20
2023-03-10T09:21:17.623Z,9.30
2023-03-10T09:23:46.670Z,9.30
2023-03-10T09:26:13.735Z,9.20
2023-03-10T09:28:40.625Z,9.30
2023-03-10T09:31:08.598Z,9.30
2023-03-10T09:33:35.902Z,9.30
2023-03-10T09:36:07.358Z,9.30
2023-03-10T09:38:35.288Z,9.40
2023-03-10T09:41:38.311Z,9.40
2023-03-10T09:45:09.855Z,9.50
2023-03-10T09:47:55.181Z,9.50
2023-03-10T09:50:38.891Z,9.50
2023-03-10T09:53:35.355Z,9.50
2023-03-10T09:56:10.506Z,9.60
2023-03-10T09:58:41.488Z,9.60
2023-03-10T10:01:17.445Z,9.60
2023-03-10T10:03:52.987Z,9.60
2023-03-10T10:06:27.665Z,9.70
2023-03-10T10:09:05.810Z,9.70
2023-03-10T10:11:34.427Z,9.60
2023-03-10T10:14:30.595Z,9.50
2023-03-10T10:17:20.868Z,9.60
2023-03-10T10:19:48.549Z,9.60
2023-03-10T10:22:26.499Z,9.60
2023-03-10T10:25:02.790Z,9.60
2023-03-10T10:27:31.513Z,9.70
2023-03-10T10:29:58.603Z,9.70
2023-03-10T10:32:25.437Z,9.80
2023-03-10T10:34:52.136Z,9.90
2023-03-10T10:37:29.874Z,9.90
2023-03-10T10:39:59.096Z,9.80
2023-03-10T10:42:32.092Z,9.70
2023-03-10T10:45:02.442Z,9.70
2023-03-10T10:47:58.573Z,9.70
2023-03-10T10:50:32.299Z,9.80
2023-03-10T10:53:19.820Z,9.80
2023-03-10T10:55:58.743Z,9.80
2023-03-10T10:58:30.036Z,9.80
2023-03-10T11:01:02.974Z,9.80
2023-03-10T11:03:36.999Z,9.80
2023-03-10T11:06:19.742Z,9.80
2023-03-10T11:08:51.257Z,9.90
2023-03-10T11:11:24.515Z,9.80
2023-03-10T11:13:56.789Z,9.70
2023-03-10T11:16:23.310Z,9.70
2023-03-10T11:18:55.670Z,9.80
2023-03-10T11:21:29.378Z,9.80
2023-03-10T11:24:25.583Z,9.80
2023-03-10T11:26:59.503Z,9.70
2023-03-10T11:29:47.751Z,9.60
2023-03-10T11:32:14.540Z,9.60
2023-03-10T11:34:49.267Z,9.70
2023-03-10T11:37:31.025Z,9.80
2023-03-10T11:40:16.356Z,9.80
2023-03-10T11:42:56.096Z,9.80
2023-03-10T11:45:41.891Z,9.90
2023-03-10T11:48:23.656Z,9.90
2023-03-10T11:51:00.629Z,10.00
2023-03-10T11:53:44.477Z,10.10
2023-03-10T11:56:14.893Z,10.10
2023-03-10T11:58:50.175Z,10.10
2023-03-10T12:01:23.227Z,10.10
2023-03-10T12:03:59.537Z,10.10
2023-03-10T12:06:57.610Z,10.10
2023-03-10T12:09:50.510Z,10.10
2023-03-10T12:12:41.949Z,10.10
2023-03-10T12:15:23.745Z,10.10
2023-03-10T12:17:51.911Z,10.10
2023-03-10T12:20:18.460Z,10.10
2023-03-10T12:22:46.790Z,10.10
2023-03-10T12:25:28.556Z,10.10
2023-03-10T12:28:16.563Z,10.10
2023-03-10T12:30:51.446Z,10.10
2023-03-10T12:33:30.258Z,10.00
2023-03-10T12:36:02.623Z,10.00
2023-03-10T12:38:31.139Z,10.00
2023-03-10T12:41:00.048Z,10.00
2023-03-10T12:43:59.288Z,10.00
2023-03-10T12:46:45.866Z,10.00
2023-03-10T12:49:33.712Z,10.00
2023-03-10T12:52:13.156Z,10.00
2023-03-10T12:54:55.324Z,10.00
2023-03-10T12:57:21.908Z,10.00
2023-03-10T12:59:48.518Z,10.00
2023-03-10T13:02:26.233Z,10.00
2023-03-10T13:04:58.950Z,9.90
2023-03-10T13:07:28.776Z,9.90
2023-03-10T13:09:56.999Z,9.90
2023-03-10T13:12:31.118Z,9.90
2023-03-10T13:15:00.281Z,9.90
2023-03-10T13:17:32.804Z,9.90
2023-03-10T13:20:05.811Z,9.90
2023-03-10T13:22:33.217Z,9.90
2023-03-10T13:25:02.730Z,9.90
2023-03-10T13:27:31.887Z,9.90
2023-03-10T13:30:11.060Z,9.80
2023-03-10T13:32:37.950Z,9.80
2023-03-10T13:35:36.231Z,9.80
2023-03-10T13:38:16.384Z,9.80
2023-03-10T13:40:47.451Z,9.80
2023-03-10T13:43:39.787Z,9.80
2023-03-10T13:46:14.660Z,9.70
2023-03-10T13:48:42.537Z,9.70
2023-03-10T13:51:21.189Z,9.70
2023-03-10T13:53:48.433Z,9.70
2023-03-10T13:56:18.239Z,9.70
2023-03-10T13:58:46.745Z,9.70
2023-03-10T14:01:26.560Z,9.70
2023-03-10T14:03:58.047Z,9.70
2023-03-10T14:06:26.586Z,9.70
2023-03-10T14:08:53.717Z,9.60
2023-03-10T14:11:41.040Z,9.60
2023-03-10T14:14:10.474Z,9.60
2023-03-10T14:16:49.098Z,9.60
2023-03-10T14:19:35.686Z,9.60
2023-03-10T14:22:02.559Z,9.70
2023-03-10T14:24:29.212Z,9.70
2023-03-10T14:27:00.808Z,9.80
2023-03-10T14:29:27.576Z,9.70
2023-03-10T14:31:54.272Z,9.70
2023-03-10T14:34:20.902Z,9.80
2023-03-10T14:36:47.470Z,9.80
2023-03-10T14:39:14.554Z,9.80
2023-03-10T14:41:41.161Z,9.70
2023-03-10T14:44:10.688Z,9.80
2023-03-10T14:46:37.573Z,9.80
2023-03-10T14:49:08.185Z,9.80
2023-03-10T14:51:36.439Z,9.80
2023-03-10T14:54:03.830Z,9.70
2023-03-10T14:56:31.841Z,9.70
2023-03-10T14:59:02.144Z,9.70
2023-03-10T15:01:29.453Z,9.70
2023-03-10T15:03:56.252Z,9.70
2023-03-10T15:06:22.854Z,9.70
2023-03-10T15:08:49.518Z,9.80
2023-03-10T15:11:24.000Z,9.70
2023-03-10T15:13:57.665Z,9.80
2023-03-10T15:16:24.243Z,9.80
2023-03-10T15:18:53.158Z,9.80
2023-03-10T15:21:20.062Z,9.80
2023-03-10T15:23:46.749Z,9.70
2023-03-10T15:26:13.431Z,9.70
2023-03-10T15:28:40.294Z,9.70
2023-03-10T15:31:07.027Z,9.70
2023-03-10T15:33:33.816Z,9.70
2023-03-10T15:36:00.524Z,9.70
2023-03-10T15:38:31.277Z,9.70
2023-03-10T15:40:58.008Z,9.60
2023-03-10T15:43:24.571Z,9.60
2023-03-10T15:45:51.312Z,9.50
2023-03-10T15:48:18.620Z,9.50
2023-03-10T15:50:49.006Z,9.50
2023-03-10T15:53:15.915Z,9.50
2023-03-10T15:55:42.636Z,9.50
2023-03-10T15:58:11.124Z,9.50
2023-03-10T16:00:37.768Z,9.50
2023-03-10T16:03:04.383Z,9.40
2023-03-10T16:05:31.124Z,9.40
2023-03-10T16:07:57.787Z,9.40
2023-03-10T16:10:24.616Z,9.40
2023-03-10T16:12:51.775Z,9.40
2023-03-10T16:15:18.636Z,9.30
2023-03-10T16:17:45.375Z,9.30
2023-03-10T16:20:16.985Z,9.30
2023-03-10T16:22:43.771Z,9.30
2023-03-10T16:25:15.951Z,9.30
2023-03-10T16:27:46.337Z,9.20
2023-03-10T16:30:15.384Z,9.20
2023-03-10T16:32:46.786Z,9.20
2023-03-10T16:35:13.698Z,9.20
2023-03-10T16:37:40.513Z,9.20
2023-03-10T16:40:08.099Z,9.20
2023-03-10T16:42:36.762Z,9.10
2023-03-10T16:45:05.616Z,9.10
2023-03-10T16:47:32.641Z,9.10
2023-03-10T16:49:59.264Z,9.10
2023-03-10T16:52:25.932Z,9.00
2023-03-10T16:54:57.223Z,9.00
2023-03-10T16:57:23.866Z,9.00
2023-03-10T16:59:50.448Z,9.00
2023-03-10T17:02:17.018Z,9.00
2023-03-10T17:04:44.685Z,8.90
2023-03-10T17:07:11.391Z,8.80
2023-03-10T17:09:38.129Z,8.80
2023-03-10T17:12:05.179Z,8.90
2023-03-10T17:14:32.006Z,8.80
2023-03-10T17:16:58.793Z,8.80
2023-03-10T17:19:29.883Z,8.80
2023-03-10T17:21:57.679Z,8.80
2023-03-10T17:24:24.611Z,8.70
2023-03-10T17:26:51.331Z,8.70
2023-03-10T17:29:18.265Z,8.70
2023-03-10T17:31:48.928Z,8.70
2023-03-10T17:34:16.425Z,8.60
2023-03-10T17:36:43.492Z,8.60
2023-03-10T17:39:17.332Z,8.60
2023-03-10T17:41:43.909Z,8.60
2023-03-10T17:44:11.327Z,8.50
2023-03-10T17:46:41.105Z,8.50
2023-03-10T17:49:11.124Z,8.40
2023-03-10T17:51:39.234Z,8.40
2023-03-10T17:54:07.447Z,8.40
2023-03-10T17:56:34.137Z,8.40
2023-03-10T17:59:00.956Z,8.30
2023-03-10T18:01:29.580Z,8.30
2023-03-10T18:03:57.764Z,8.30
2023-03-10T18:06:29.593Z,8.20
2023-03-10T18:08:57.692Z,8.20
2023-03-10T18:11:24.574Z,8.20
2023-03-10T18:13:51.691Z,8.10
2023-03-10T18:16:24.010Z,8.10
2023-03-10T18:18:51.250Z,8.10
2023-03-10T18:21:19.023Z,8.10
2023-03-10T18:23:46.377Z,8.00
2023-03-10T18:26:15.800Z,8.00
2023-03-10T18:28:42.458Z,7.90
2023-03-10T18:31:16.042Z,7.90
2023-03-10T18:33:43.592Z,7.90
2023-03-10T18:36:13.644Z,7.90
2023-03-10T18:38:41.252Z,7.90
2023-03-10T18:41:07.951Z,7.90
2023-03-10T18:43:34.807Z,7.80
2023-03-10T18:46:01.740Z,7.80
2023-03-10T18:48:28.876Z,7.80
2023-03-10T18:50:57.448Z,7.70
2023-03-10T18:53:25.594Z,7.70
2023-03-10T18:55:52.776Z,7.70
2023-03-10T18:58:19.691Z,7.60
2023-03-10T19:00:46.471Z,7.60
2023-03-10T19:03:13.680Z,7.60
2023-03-10T19:05:40.926Z,7.60
2023-03-10T19:08:07.934Z,7.60
2023-03-10T19:10:34.560Z,7.60
2023-03-10T19:13:01.117Z,7.50
2023-03-10T19:15:27.780Z,7.40
2023-03-10T19:17:55.188Z,7.40
2023-03-10T19:20:21.890Z,7.40
2023-03-10T19:22:50.888Z,7.40
2023-03-10T19:25:18.836Z,7.40
2023-03-10T19:27:46.236Z,7.40
2023-03-10T19:30:17.175Z,7.40
2023-03-10T19:32:45.112Z,7.30
2023-03-10T19:35:12.393Z,7.30
2023-03-10T19:37:43.828Z,7.30
2023-03-10T19:40:16.952Z,7.30
2023-03-10T19:42:43.584Z,7.30
2023-03-10T19:45:15.719Z,7.20
2023-03-10T19:47:42.701Z,7.20
2023-03-10T19:50:11.512Z,7.20
2023-03-10T19:52:43.433Z,7.20
2023-03-10T19:55:14.083Z,7.20
2023-03-10T19:57:41.142Z,7.10
2023-03-10T20:00:13.625Z,7.10
2023-03-10T20:02:42.387Z,7.10
2023-03-10T20:05:09.558Z,7.10
2023-03-10T20:07:36.169Z,7.10
2023-03-10T20:10:03.525Z,7.00
2023-03-10T20:12:30.192Z,7.00
2023-03-10T20:15:00.194Z,7.00
2023-03-10T20:17:27.892Z,7.00
2023-03-10T20:19:54.546Z,7.00
2023-03-10T20:22:21.255Z,7.00
2023-03-10T20:24:47.915Z,6.90
2023-03-10T20:27:14.637Z,6.90
2023-03-10T20:29:42.132Z,6.90
2023-03-10T20:32:08.895Z,6.90
2023-03-10T20:34:35.665Z,6.90
2023-03-10T20:37:02.274Z,6.90
2023-03-10T20:39:29.029Z,6.90
2023-03-10T20:41:55.658Z,6.80
2023-03-10T20:44:22.324Z,6.80
2023-03-10T20:46:48.984Z,6.80
2023-03-10T20:49:15.606Z,6.80
2023-03-10T20:51:42.228Z,6.80
2023-03-10T20:54:08.831Z,6.80
2023-03-10T20:56:35.726Z,6.80
2023-03-10T20:59:02.499Z,6.70
2023-03-10T21:01:30.077Z,6.80
2023-03-10T21:03:58.589Z,6.70
2023-03-10T21:06:27.020Z,6.70
2023-03-10T21:08:53.936Z,6.70
2023-03-10T21:11:20.786Z,6.70
2023-03-10T21:13:47.437Z,6.70
2023-03-10T21:16:14.057Z,6.60
2023-03-10T21:18:40.625Z,6.60
2023-03-10T21:21:09.867Z,6.60
2023-03-10T21:23:38.324Z,6.60
2023-03-10T21:26:16.745Z,6.60
2023-03-10T21:28:43.686Z,6.50
2023-03-10T21:31:10.966Z,6.50
2023-03-10T21:33:38.316Z,6.50
2023-03-10T21:36:05.271Z,6.50
2023-03-10T21:38:32.168Z,6.50
2023-03-10T21:40:58.976Z,6.50
2023-03-10T21:43:27.363Z,6.50
2023-03-10T21:45:54.027Z,6.40
2023-03-10T21:48:20.701Z,6.40
2023-03-10T21:50:47.384Z,6.40
2023-03-10T21:53:14.083Z,6.40
2023-03-10T21:55:40.992Z,6.40
2023-03-10T21:58:07.654Z,6.40
2023-03-10T22:00:36.260Z,6.40
2023-03-10T22:03:04.680Z,6.40
2023-03-10T22:05:31.331Z,6.30
2023-03-10T22:07:59.257Z,6.30
2023-03-10T22:10:26.008Z,6.30
2023-03-10T22:12:52.775Z,6.30
2023-03-10T22:15:22.817Z,6.30
2023-03-10T22:17:50.377Z,6.30
2023-03-10T22:20:20.864Z,6.30
2023-03-10T22:22:47.716Z,6.30
2023-03-10T22:25:14.995Z,6.20
2023-03-10T22:27:42.706Z,6.20
2023-03-10T22:30:10.300Z,6.20
2023-03-10T22:32:36.969Z,6.20
2023-03-10T22:35:03.816Z,6.20
2023-03-10T22:37:30.484Z,6.20
2023-03-10T22:39:57.027Z,6.20
2023-03-10T22:42:23.634Z,6.20
2023-03-10T22:44:50.195Z,6.20
2023-03-10T22:47:17.724Z,6.10
2023-03-10T22:49:44.407Z,6.10
2023-03-10T22:52:11.099Z,6.10
2023-03-10T22:54:37.777Z,6.10
2023-03-10T22:57:04.572Z,6.10
2023-03-10T22:59:31.259Z,6.10
2023-03-10T23:01:57.921Z,6.10
2023-03-10T23:04:24.926Z,6.10
2023-03-10T23:06:51.613Z,6.10
2023-03-10T23:09:18.295Z,6.10
2023-03-10T23:11:46.662Z,6.00
2023-03-10T23:14:13.380Z,6.10
2023-03-10T23:16:40.351Z,6.10
2023-03-10T23:19:08.693Z,6.00
2023-03-10T23:21:36.137Z,6.00
2023-03-10T23:24:03.119Z,6.00
2023-03-10T23:26:30.175Z,6.00
2023-03-10T23:28:57.414Z,6.00
2023-03-10T23:31:24.813Z,6.00
2023-03-10T23:33:51.624Z,6.00
2023-03-10T23:36:19.092Z,6.00
2023-03-10T23:38:45.763Z,6.00
2023-03-10T23:41:13.078Z,6.00
2023-03-10T23:43:39.710Z,6.00
2023-03-10T23:46:08.219Z,5.90
2023-03-10T23:48:35.633Z,5.90
2023-03-10T23:51:02.991Z,5.90
2023-03-10T23:53:30.446Z,5.90
2023-03-10T23:55:58.830Z,5.90
2023-03-10T23:58:26.403Z,5.90
